sensor_id;sensor_type;location;lat;lon;timestamp;pressure;altitude;pressure_sealevel;temperature;humidity
65756;BME280;69208;47.502;18.940;2023-08-31T00:00:42;97495.38;;;13.72;100.00
65756;BME280;69208;47.502;18.940;2023-08-31T00:01:45;97499.00;;;13.67;100.00
65756;BME280;69208;47.502;18.940;2023-08-31T00:02:48;97500.44;;;13.64;100.00
65756;BME280;69208;47.502;18.940;2023-08-31T00:03:51;97498.88;;;13.63;100.00
65756;BME280;69208;47.502;18.940;2023-08-31T00:04:54;97506.34;;;13.61;100.00
65756;BME280;69208;47.502;18.940;2023-08-31T00:05:57;97509.09;;;13.65;100.00
65756;BME280;69208;47.502;18.940;2023-08-31T00:07:00;97505.59;;;13.61;100.00
65756;BME280;69208;47.502;18.940;2023-08-31T00:08:03;97506.91;;;13.55;100.00
65756;BME280;69208;47.502;18.940;2023-08-31T00:09:06;97507.88;;;13.50;100.00
65756;BME280;69208;47.502;18.940;2023-08-31T00:10:12;97508.75;;;13.54;100.00
65756;BME280;69208;47.502;18.940;2023-08-31T00:11:15;97510.72;;;13.57;100.00
65756;BME280;69208;47.502;18.940;2023-08-31T00:12:18;97511.50;;;13.58;100.00
65756;BME280;69208;47.502;18.940;2023-08-31T00:13:21;97505.81;;;13.68;100.00
65756;BME280;69208;47.502;18.940;2023-08-31T00:14:25;97503.50;;;13.67;100.00
65756;BME280;69208;47.502;18.940;2023-08-31T00:15:29;97500.44;;;13.64;100.00
65756;BME280;69208;47.502;18.940;2023-08-31T00:16:35;97501.75;;;13.71;100.00
65756;BME280;69208;47.502;18.940;2023-08-31T00:17:39;97501.19;;;13.77;100.00
65756;BME280;69208;47.502;18.940;2023-08-31T00:18:42;97511.53;;;13.70;100.00
65756;BME280;69208;47.502;18.940;2023-08-31T00:19:47;97501.09;;;13.74;100.00
65756;BME280;69208;47.502;18.940;2023-08-31T00:20:50;97509.66;;;13.71;100.00
65756;BME280;69208;47.502;18.940;2023-08-31T00:21:53;97509.84;;;13.65;100.00
65756;BME280;69208;47.502;18.940;2023-08-31T00:22:56;97513.38;;;13.70;100.00
65756;BME280;69208;47.502;18.940;2023-08-31T00:24:00;97506.16;;;13.79;100.00
65756;BME280;69208;47.502;18.940;2023-08-31T00:25:04;97518.75;;;13.73;100.00
65756;BME280;69208;47.502;18.940;2023-08-31T00:26:11;97511.06;;;13.68;100.00
65756;BME280;69208;47.502;18.940;2023-08-31T00:27:13;97515.56;;;13.68;100.00
65756;BME280;69208;47.502;18.940;2023-08-31T00:28:18;97508.44;;;13.68;100.00
65756;BME280;69208;47.502;18.940;2023-08-31T00:29:21;97505.25;;;13.75;100.00
65756;BME280;69208;47.502;18.940;2023-08-31T00:30:26;97511.41;;;13.79;100.00
65756;BME280;69208;47.502;18.940;2023-08-31T00:31:31;97507.78;;;13.83;100.00
65756;BME280;69208;47.502;18.940;2023-08-31T00:32:34;97504.19;;;13.88;100.00
65756;BME280;69208;47.502;18.940;2023-08-31T00:33:40;97501.84;;;13.86;100.00
65756;BME280;69208;47.502;18.940;2023-08-31T00:34:43;97503.72;;;13.86;100.00
65756;BME280;69208;47.502;18.940;2023-08-31T00:35:46;97505.91;;;13.84;100.00
65756;BME280;69208;47.502;18.940;2023-08-31T00:36:49;97498.47;;;13.86;100.00
65756;BME280;69208;47.502;18.940;2023-08-31T00:37:53;97503.41;;;13.87;100.00
65756;BME280;69208;47.502;18.940;2023-08-31T00:39:04;97498.25;;;13.91;100.00
65756;BME280;69208;47.502;18.940;2023-08-31T00:40:13;97503.63;;;13.95;100.00
65756;BME280;69208;47.502;18.940;2023-08-31T00:41:16;97503.72;;;13.98;100.00
65756;BME280;69208;47.502;18.940;2023-08-31T00:42:20;97503.50;;;14.03;100.00
65756;BME280;69208;47.502;18.940;2023-08-31T00:43:23;97504.28;;;14.04;100.00
65756;BME280;69208;47.502;18.940;2023-08-31T00:44:26;97505.38;;;14.03;100.00
65756;BME280;69208;47.502;18.940;2023-08-31T00:45:29;97509.09;;;14.02;100.00
65756;BME280;69208;47.502;18.940;2023-08-31T00:46:33;97513.59;;;14.01;100.00
65756;BME280;69208;47.502;18.940;2023-08-31T00:47:37;97505.03;;;14.04;100.00
65756;BME280;69208;47.502;18.940;2023-08-31T00:48:41;97506.16;;;14.03;100.00
65756;BME280;69208;47.502;18.940;2023-08-31T00:49:44;97501.87;;;14.11;100.00
65756;BME280;69208;47.502;18.940;2023-08-31T00:50:47;97504.25;;;14.16;100.00
65756;BME280;69208;47.502;18.940;2023-08-31T00:51:50;97503.72;;;14.10;100.00
65756;BME280;69208;47.502;18.940;2023-08-31T00:52:53;97501.97;;;14.15;100.00
65756;BME280;69208;47.502;18.940;2023-08-31T00:53:57;97496.72;;;14.15;100.00
65756;BME280;69208;47.502;18.940;2023-08-31T00:55:02;97507.66;;;14.17;100.00
65756;BME280;69208;47.502;18.940;2023-08-31T00:56:08;97496.81;;;14.18;100.00
65756;BME280;69208;47.502;18.940;2023-08-31T00:57:11;97499.88;;;14.20;100.00
65756;BME280;69208;47.502;18.940;2023-08-31T00:58:14;97503.94;;;14.18;100.00
65756;BME280;69208;47.502;18.940;2023-08-31T00:59:17;97499.13;;;14.20;100.00
65756;BME280;69208;47.502;18.940;2023-08-31T01:00:20;97498.34;;;14.19;100.00
65756;BME280;69208;47.502;18.940;2023-08-31T01:06:55;97513.34;;;14.31;100.00
65756;BME280;69208;47.502;18.940;2023-08-31T01:08:18;97512.94;;;14.29;100.00
65756;BME280;69208;47.502;18.940;2023-08-31T01:09:39;97509.09;;;14.26;100.00
65756;BME280;69208;47.502;18.940;2023-08-31T01:10:49;97510.44;;;14.20;100.00
65756;BME280;69208;47.502;18.940;2023-08-31T01:12:09;97510.84;;;14.22;100.00
65756;BME280;69208;47.502;18.940;2023-08-31T01:13:19;97515.22;;;14.30;100.00
65756;BME280;69208;47.502;18.940;2023-08-31T01:14:31;97518.97;;;14.29;100.00
65756;BME280;69208;47.502;18.940;2023-08-31T01:15:35;97516.00;;;14.31;100.00
65756;BME280;69208;47.502;18.940;2023-08-31T01:16:41;97518.31;;;14.32;100.00
65756;BME280;69208;47.502;18.940;2023-08-31T01:17:50;97518.31;;;14.32;100.00
65756;BME280;69208;47.502;18.940;2023-08-31T01:18:56;97517.53;;;14.32;100.00
65756;BME280;69208;47.502;18.940;2023-08-31T01:20:00;97514.91;;;14.32;100.00
65756;BME280;69208;47.502;18.940;2023-08-31T01:21:29;97520.19;;;14.32;100.00
65756;BME280;69208;47.502;18.940;2023-08-31T01:22:40;97518.41;;;14.36;100.00
65756;BME280;69208;47.502;18.940;2023-08-31T01:23:50;97518.63;;;14.31;100.00
65756;BME280;69208;47.502;18.940;2023-08-31T01:24:54;97516.66;;;14.28;100.00
65756;BME280;69208;47.502;18.940;2023-08-31T01:25:58;97511.06;;;14.29;100.00
65756;BME280;69208;47.502;18.940;2023-08-31T01:27:01;97523.47;;;14.29;100.00
65756;BME280;69208;47.502;18.940;2023-08-31T01:28:05;97520.41;;;14.27;100.00
65756;BME280;69208;47.502;18.940;2023-08-31T01:29:09;97522.28;;;14.26;100.00
65756;BME280;69208;47.502;18.940;2023-08-31T01:30:12;97530.16;;;14.26;100.00
65756;BME280;69208;47.502;18.940;2023-08-31T01:31:15;97527.53;;;14.26;100.00
65756;BME280;69208;47.502;18.940;2023-08-31T01:32:19;97530.94;;;14.27;100.00
65756;BME280;69208;47.502;18.940;2023-08-31T01:33:22;97535.75;;;14.25;100.00
65756;BME280;69208;47.502;18.940;2023-08-31T01:34:25;97532.81;;;14.26;100.00
65756;BME280;69208;47.502;18.940;2023-08-31T01:35:32;97532.03;;;14.26;100.00
65756;BME280;69208;47.502;18.940;2023-08-31T01:36:42;97531.59;;;14.24;100.00
65756;BME280;69208;47.502;18.940;2023-08-31T01:38:03;97538.94;;;14.30;100.00
65756;BME280;69208;47.502;18.940;2023-08-31T01:39:11;97534.03;;;14.29;100.00
65756;BME280;69208;47.502;18.940;2023-08-31T01:40:44;97532.25;;;14.33;100.00
65756;BME280;69208;47.502;18.940;2023-08-31T01:41:56;97530.47;;;14.37;100.00
65756;BME280;69208;47.502;18.940;2023-08-31T01:43:01;97532.03;;;14.38;100.00
65756;BME280;69208;47.502;18.940;2023-08-31T01:44:05;97536.19;;;14.39;100.00
65756;BME280;69208;47.502;18.940;2023-08-31T01:45:15;97536.63;;;14.41;100.00
65756;BME280;69208;47.502;18.940;2023-08-31T01:46:23;97538.50;;;14.41;100.00
65756;BME280;69208;47.502;18.940;2023-08-31T01:47:26;97523.69;;;14.36;100.00
65756;BME280;69208;47.502;18.940;2023-08-31T01:48:29;97528.38;;;14.43;100.00
65756;BME280;69208;47.502;18.940;2023-08-31T01:49:37;97533.09;;;14.37;100.00
65756;BME280;69208;47.502;18.940;2023-08-31T01:50:41;97532.25;;;14.33;100.00
65756;BME280;69208;47.502;18.940;2023-08-31T01:51:43;97534.78;;;14.29;100.00
65756;BME280;69208;47.502;18.940;2023-08-31T01:52:46;97534.13;;;14.32;100.00
65756;BME280;69208;47.502;18.940;2023-08-31T01:53:49;97534.78;;;14.29;100.00
65756;BME280;69208;47.502;18.940;2023-08-31T01:54:52;97539.16;;;14.25;100.00
65756;BME280;69208;47.502;18.940;2023-08-31T01:55:56;97536.88;;;14.24;100.00
65756;BME280;69208;47.502;18.940;2023-08-31T01:56:59;97538.94;;;14.18;100.00
65756;BME280;69208;47.502;18.940;2023-08-31T01:58:02;97536.78;;;14.20;100.00
65756;BME280;69208;47.502;18.940;2023-08-31T01:59:05;97537.84;;;14.19;100.00
65756;BME280;69208;47.502;18.940;2023-08-31T02:00:11;97539.06;;;14.22;100.00
65756;BME280;69208;47.502;18.940;2023-08-31T02:01:14;97538.41;;;14.25;100.00
65756;BME280;69208;47.502;18.940;2023-08-31T02:02:17;97534.69;;;14.26;100.00
65756;BME280;69208;47.502;18.940;2023-08-31T02:03:20;97539.81;;;14.22;100.00
65756;BME280;69208;47.502;18.940;2023-08-31T02:04:23;97525.34;;;14.16;100.00
65756;BME280;69208;47.502;18.940;2023-08-31T02:05:26;97530.28;;;14.18;100.00
65756;BME280;69208;47.502;18.940;2023-08-31T02:06:30;97523.91;;;14.19;100.00
65756;BME280;69208;47.502;18.940;2023-08-31T02:07:33;97533.47;;;14.23;100.00
65756;BME280;69208;47.502;18.940;2023-08-31T02:08:36;97532.56;;;14.19;100.00
65756;BME280;69208;47.502;18.940;2023-08-31T02:09:39;97537.75;;;14.16;100.00
65756;BME280;69208;47.502;18.940;2023-08-31T02:10:42;97528.62;;;14.13;100.00
65756;BME280;69208;47.502;18.940;2023-08-31T02:11:45;97533.13;;;14.13;100.00
65756;BME280;69208;47.502;18.940;2023-08-31T02:12:49;97530.59;;;14.16;100.00
65756;BME280;69208;47.502;18.940;2023-08-31T02:13:52;97536.63;;;14.17;100.00
65756;BME280;69208;47.502;18.940;2023-08-31T02:14:55;97525.13;;;14.21;100.00
65756;BME280;69208;47.502;18.940;2023-08-31T02:15:58;97531.59;;;14.24;100.00
65756;BME280;69208;47.502;18.940;2023-08-31T02:17:02;97535.00;;;14.24;100.00
65756;BME280;69208;47.502;18.940;2023-08-31T02:18:07;97534.00;;;14.17;100.00
65756;BME280;69208;47.502;18.940;2023-08-31T02:19:10;97542.56;;;14.14;100.00
65756;BME280;69208;47.502;18.940;2023-08-31T02:20:14;97531.16;;;14.09;100.00
65756;BME280;69208;47.502;18.940;2023-08-31T02:21:17;97538.84;;;14.15;100.00
65756;BME280;69208;47.502;18.940;2023-08-31T02:22:20;97533.59;;;14.15;100.00
65756;BME280;69208;47.502;18.940;2023-08-31T02:23:23;97528.97;;;14.11;100.00
65756;BME280;69208;47.502;18.940;2023-08-31T02:24:26;97534.44;;;14.19;100.00
65756;BME280;69208;47.502;18.940;2023-08-31T02:25:29;97535.44;;;14.14;100.00
65756;BME280;69208;47.502;18.940;2023-08-31T02:26:34;97532.69;;;14.10;100.00
65756;BME280;69208;47.502;18.940;2023-08-31T02:27:39;97528.44;;;14.06;100.00
65756;BME280;69208;47.502;18.940;2023-08-31T02:28:42;97532.78;;;14.02;100.00
65756;BME280;69208;47.502;18.940;2023-08-31T02:29:45;97532.28;;;13.96;100.00
65756;BME280;69208;47.502;18.940;2023-08-31T02:30:57;97535.66;;;13.97;100.00
65756;BME280;69208;47.502;18.940;2023-08-31T02:32:04;97542.56;;;13.89;100.00
65756;BME280;69208;47.502;18.940;2023-08-31T02:33:07;97540.69;;;13.89;100.00
65756;BME280;69208;47.502;18.940;2023-08-31T02:34:10;97543.22;;;13.86;100.00
65756;BME280;69208;47.502;18.940;2023-08-31T02:35:13;97537.41;;;13.80;100.00
65756;BME280;69208;47.502;18.940;2023-08-31T02:36:16;97543.31;;;13.77;100.00
65756;BME280;69208;47.502;18.940;2023-08-31T02:37:19;97545.75;;;13.82;100.00
65756;BME280;69208;47.502;18.940;2023-08-31T02:38:22;97532.47;;;13.79;100.00
65756;BME280;69208;47.502;18.940;2023-08-31T02:39:25;97543.88;;;13.71;100.00
65756;BME280;69208;47.502;18.940;2023-08-31T02:40:28;97543.88;;;13.71;100.00
65756;BME280;69208;47.502;18.940;2023-08-31T02:41:31;97543.88;;;13.71;100.00
65756;BME280;69208;47.502;18.940;2023-08-31T02:42:34;97546.50;;;13.83;100.00
65756;BME280;69208;47.502;18.940;2023-08-31T02:43:38;97543.97;;;13.86;100.00
65756;BME280;69208;47.502;18.940;2023-08-31T02:44:42;97547.94;;;13.93;100.00
65756;BME280;69208;47.502;18.940;2023-08-31T02:45:45;97555.41;;;13.91;100.00
65756;BME280;69208;47.502;18.940;2023-08-31T02:46:48;97546.97;;;13.85;100.00
65756;BME280;69208;47.502;18.940;2023-08-31T02:47:51;97550.00;;;13.87;100.00
65756;BME280;69208;47.502;18.940;2023-08-31T02:48:54;97546.41;;;13.79;100.00
65756;BME280;69208;47.502;18.940;2023-08-31T02:49:57;97546.06;;;13.81;100.00
65756;BME280;69208;47.502;18.940;2023-08-31T02:51:00;97553.00;;;13.85;100.00
65756;BME280;69208;47.502;18.940;2023-08-31T02:52:04;97555.63;;;13.85;100.00
65756;BME280;69208;47.502;18.940;2023-08-31T02:53:06;97548.69;;;13.81;100.00
65756;BME280;69208;47.502;18.940;2023-08-31T02:54:09;97543.66;;;13.76;100.00
65756;BME280;69208;47.502;18.940;2023-08-31T02:55:12;97548.59;;;13.77;100.00
65756;BME280;69208;47.502;18.940;2023-08-31T02:56:15;97537.41;;;13.80;100.00
65756;BME280;69208;47.502;18.940;2023-08-31T02:57:18;97546.41;;;13.79;100.00
65756;BME280;69208;47.502;18.940;2023-08-31T02:58:22;97544.22;;;13.81;100.00
65756;BME280;69208;47.502;18.940;2023-08-31T02:59:25;97542.66;;;13.80;100.00
65756;BME280;69208;47.502;18.940;2023-08-31T03:00:28;97538.81;;;13.78;100.00
65756;BME280;69208;47.502;18.940;2023-08-31T03:01:31;97536.19;;;13.78;100.00
65756;BME280;69208;47.502;18.940;2023-08-31T03:02:34;97536.19;;;13.78;100.00
65756;BME280;69208;47.502;18.940;2023-08-31T03:03:38;97536.97;;;13.78;100.00
65756;BME280;69208;47.502;18.940;2023-08-31T03:04:41;97540.91;;;13.72;100.00
65756;BME280;69208;47.502;18.940;2023-08-31T03:05:45;97536.41;;;13.73;100.00
65756;BME280;69208;47.502;18.940;2023-08-31T03:06:48;97531.81;;;13.70;100.00
65756;BME280;69208;47.502;18.940;2023-08-31T03:07:51;97534.75;;;13.68;100.00
65756;BME280;69208;47.502;18.940;2023-08-31T03:08:54;97535.88;;;13.67;100.00
65756;BME280;69208;47.502;18.940;2023-08-31T03:09:57;97543.66;;;13.76;100.00
65756;BME280;69208;47.502;18.940;2023-08-31T03:11:01;97531.72;;;13.78;100.00
65756;BME280;69208;47.502;18.940;2023-08-31T03:12:04;97537.75;;;13.79;100.00
65756;BME280;69208;47.502;18.940;2023-08-31T03:13:07;97536.72;;;13.71;100.00
65756;BME280;69208;47.502;18.940;2023-08-31T03:14:11;97535.09;;;13.67;100.00
65756;BME280;69208;47.502;18.940;2023-08-31T03:15:14;97537.19;;;13.73;100.00
65756;BME280;69208;47.502;18.940;2023-08-31T03:16:17;97531.81;;;13.70;100.00
65756;BME280;69208;47.502;18.940;2023-08-31T03:17:20;97538.25;;;13.72;100.00
65756;BME280;69208;47.502;18.940;2023-08-31T03:18:23;97532.88;;;13.69;100.00
65756;BME280;69208;47.502;18.940;2023-08-31T03:19:26;97537.28;;;13.64;100.00
65756;BME280;69208;47.502;18.940;2023-08-31T03:20:29;97535.41;;;13.65;100.00
65756;BME280;69208;47.502;18.940;2023-08-31T03:21:32;97540.59;;;13.74;100.00
65756;BME280;69208;47.502;18.940;2023-08-31T03:22:35;97537.19;;;13.73;100.00
65756;BME280;69208;47.502;18.940;2023-08-31T03:23:37;97534.00;;;13.68;100.00
65756;BME280;69208;47.502;18.940;2023-08-31T03:24:40;97540.69;;;13.65;100.00
65756;BME280;69208;47.502;18.940;2023-08-31T03:25:43;97545.06;;;13.61;100.00
65756;BME280;69208;47.502;18.940;2023-08-31T03:26:46;97544.41;;;13.64;100.00
65756;BME280;69208;47.502;18.940;2023-08-31T03:27:49;97551.41;;;13.60;100.00
65756;BME280;69208;47.502;18.940;2023-08-31T03:28:52;97544.50;;;13.55;100.00
65756;BME280;69208;47.502;18.940;2023-08-31T03:29:55;97546.47;;;13.58;100.00
65756;BME280;69208;47.502;18.940;2023-08-31T03:30:58;97547.69;;;13.61;100.00
65756;BME280;69208;47.502;18.940;2023-08-31T03:32:01;97548.47;;;13.61;100.00
65756;BME280;69208;47.502;18.940;2023-08-31T03:33:04;97552.41;;;13.55;100.00
65756;BME280;69208;47.502;18.940;2023-08-31T03:34:08;97551.50;;;13.51;100.00
65756;BME280;69208;47.502;18.940;2023-08-31T03:35:11;97553.34;;;13.51;100.00
65756;BME280;69208;47.502;18.940;2023-08-31T03:36:14;97559.06;;;13.53;100.00
65756;BME280;69208;47.502;18.940;2023-08-31T03:37:17;97555.22;;;13.50;100.00
65756;BME280;69208;47.502;18.940;2023-08-31T03:38:20;97557.09;;;13.50;100.00
65756;BME280;69208;47.502;18.940;2023-08-31T03:39:23;97566.72;;;13.46;100.00
65756;BME280;69208;47.502;18.940;2023-08-31T03:40:26;97553.56;;;13.46;100.00
65756;BME280;69208;47.502;18.940;2023-08-31T03:41:29;97560.03;;;13.48;100.00
65756;BME280;69208;47.502;18.940;2023-08-31T03:42:34;97558.50;;;13.47;100.00
65756;BME280;69208;47.502;18.940;2023-08-31T03:43:37;97561.91;;;13.48;100.00
65756;BME280;69208;47.502;18.940;2023-08-31T03:44:40;97558.97;;;13.49;100.00
65756;BME280;69208;47.502;18.940;2023-08-31T03:45:43;97557.41;;;13.48;100.00
65756;BME280;69208;47.502;18.940;2023-08-31T03:46:46;97564.66;;;13.51;100.00
65756;BME280;69208;47.502;18.940;2023-08-31T03:47:49;97559.94;;;13.57;100.00
65756;BME280;69208;47.502;18.940;2023-08-31T03:48:52;97570.47;;;13.57;100.00
65756;BME280;69208;47.502;18.940;2023-08-31T03:49:55;97561.94;;;13.60;100.00
65756;BME280;69208;47.502;18.940;2023-08-31T03:50:57;97567.97;;;13.60;100.00
65756;BME280;69208;47.502;18.940;2023-08-31T03:52:01;97567.19;;;13.60;100.00
65756;BME280;69208;47.502;18.940;2023-08-31T03:53:03;97562.37;;;13.62;100.00
65756;BME280;69208;47.502;18.940;2023-08-31T03:54:06;97568.75;;;13.61;100.00
65756;BME280;69208;47.502;18.940;2023-08-31T03:55:09;97569.06;;;13.59;100.00
65756;BME280;69208;47.502;18.940;2023-08-31T03:56:12;97570.72;;;13.52;100.00
65756;BME280;69208;47.502;18.940;2023-08-31T03:57:15;97570.81;;;13.55;100.00
65756;BME280;69208;47.502;18.940;2023-08-31T03:58:18;97564.13;;;13.58;100.00
65756;BME280;69208;47.502;18.940;2023-08-31T03:59:21;97565.78;;;13.62;100.00
65756;BME280;69208;47.502;18.940;2023-08-31T04:00:24;97565.78;;;13.62;100.00
65756;BME280;69208;47.502;18.940;2023-08-31T04:01:27;97571.81;;;13.63;100.00
65756;BME280;69208;47.502;18.940;2023-08-31T04:02:30;97574.12;;;13.64;100.00
65756;BME280;69208;47.502;18.940;2023-08-31T04:03:33;97568.94;;;13.56;100.00
65756;BME280;69208;47.502;18.940;2023-08-31T04:04:37;97571.88;;;13.42;100.00
65756;BME280;69208;47.502;18.940;2023-08-31T04:05:40;97575.41;;;13.46;100.00
65756;BME280;69208;47.502;18.940;2023-08-31T04:06:43;97576.28;;;13.50;100.00
65756;BME280;69208;47.502;18.940;2023-08-31T04:07:46;97566.62;;;13.54;100.00
65756;BME280;69208;47.502;18.940;2023-08-31T04:08:49;97569.19;;;13.63;100.00
65756;BME280;69208;47.502;18.940;2023-08-31T04:09:52;97575.53;;;13.62;100.00
65756;BME280;69208;47.502;18.940;2023-08-31T04:10:55;97571.38;;;13.61;100.00
65756;BME280;69208;47.502;18.940;2023-08-31T04:11:58;97574.66;;;13.58;100.00
65756;BME280;69208;47.502;18.940;2023-08-31T04:13:01;97569.25;;;13.54;100.00
65756;BME280;69208;47.502;18.940;2023-08-31T04:14:03;97579.47;;;13.56;100.00
65756;BME280;69208;47.502;18.940;2023-08-31T04:15:07;97575.75;;;13.57;100.00
65756;BME280;69208;47.502;18.940;2023-08-31T04:16:10;97575.09;;;13.60;100.00
65756;BME280;69208;47.502;18.940;2023-08-31T04:17:13;97574.12;;;13.64;100.00
65756;BME280;69208;47.502;18.940;2023-08-31T04:18:16;97580.03;;;13.61;100.00
65756;BME280;69208;47.502;18.940;2023-08-31T04:19:19;97582.56;;;13.58;100.00
65756;BME280;69208;47.502;18.940;2023-08-31T04:20:22;97568.31;;;13.59;100.00
65756;BME280;69208;47.502;18.940;2023-08-31T04:21:25;97576.97;;;13.59;100.00
65756;BME280;69208;47.502;18.940;2023-08-31T04:22:28;97581.34;;;13.55;100.00
65756;BME280;69208;47.502;18.940;2023-08-31T04:23:31;97582.09;;;13.56;100.00
65756;BME280;69208;47.502;18.940;2023-08-31T04:24:34;97582.34;;;13.63;100.00
65756;BME280;69208;47.502;18.940;2023-08-31T04:25:36;97586.72;;;13.59;100.00
65756;BME280;69208;47.502;18.940;2023-08-31T04:26:39;97589.81;;;13.61;100.00
65756;BME280;69208;47.502;18.940;2023-08-31T04:27:42;97585.41;;;13.65;100.00
65756;BME280;69208;47.502;18.940;2023-08-31T04:28:47;97596.72;;;13.65;100.00
65756;BME280;69208;47.502;18.940;2023-08-31T04:29:50;97598.88;;;13.63;100.00
65756;BME280;69208;47.502;18.940;2023-08-31T04:30:53;97595.94;;;13.65;100.00
65756;BME280;69208;47.502;18.940;2023-08-31T04:31:56;97598.69;;;13.69;100.00
65756;BME280;69208;47.502;18.940;2023-08-31T04:33:01;97594.97;;;13.70;100.00
65756;BME280;69208;47.502;18.940;2023-08-31T04:34:06;97607.03;;;13.71;100.00
65756;BME280;69208;47.502;18.940;2023-08-31T04:35:09;97599.38;;;13.78;100.00
65756;BME280;69208;47.502;18.940;2023-08-31T04:36:12;97605.53;;;13.82;100.00
65756;BME280;69208;47.502;18.940;2023-08-31T04:37:15;97603.97;;;13.81;100.00
65756;BME280;69208;47.502;18.940;2023-08-31T04:38:18;97609.47;;;13.76;100.00
65756;BME280;69208;47.502;18.940;2023-08-31T04:39:21;97608.06;;;13.78;100.00
65756;BME280;69208;47.502;18.940;2023-08-31T04:40:24;97615.41;;;13.85;100.00
65756;BME280;69208;47.502;18.940;2023-08-31T04:41:27;97615.84;;;13.87;100.00
65756;BME280;69208;47.502;18.940;2023-08-31T04:42:30;97619.56;;;13.86;100.00
65756;BME280;69208;47.502;18.940;2023-08-31T04:43:33;97622.47;;;13.93;100.00
65756;BME280;69208;47.502;18.940;2023-08-31T04:44:36;97622.22;;;13.98;100.00
65756;BME280;69208;47.502;18.940;2023-08-31T04:45:39;97620.91;;;14.04;100.00
65756;BME280;69208;47.502;18.940;2023-08-31T04:46:43;97627.28;;;14.03;100.00
65756;BME280;69208;47.502;18.940;2023-08-31T04:47:45;97622.59;;;14.09;100.00
65756;BME280;69208;47.502;18.940;2023-08-31T04:48:48;97627.19;;;14.12;100.00
65756;BME280;69208;47.502;18.940;2023-08-31T04:49:52;97627.75;;;14.18;100.00
65756;BME280;69208;47.502;18.940;2023-08-31T04:50:58;97635.00;;;14.21;100.00
65756;BME280;69208;47.502;18.940;2023-08-31T04:52:01;97635.09;;;14.24;100.00
65756;BME280;69208;47.502;18.940;2023-08-31T04:53:04;97632.56;;;14.28;100.00
65756;BME280;69208;47.502;18.940;2023-08-31T04:54:07;97628.41;;;14.27;100.00
65756;BME280;69208;47.502;18.940;2023-08-31T04:55:11;97628.72;;;14.25;100.00
65756;BME280;69208;47.502;18.940;2023-08-31T04:56:15;97639.28;;;14.25;100.00
65756;BME280;69208;47.502;18.940;2023-08-31T04:57:18;97634.91;;;14.29;100.00
65756;BME280;69208;47.502;18.940;2023-08-31T04:58:22;97632.47;;;14.37;100.00
65756;BME280;69208;47.502;18.940;2023-08-31T04:59:25;97624.56;;;14.37;100.00
65756;BME280;69208;47.502;18.940;2023-08-31T05:00:28;97631.25;;;14.34;100.00
65756;BME280;69208;47.502;18.940;2023-08-31T05:01:31;97634.34;;;14.36;100.00
65756;BME280;69208;47.502;18.940;2023-08-31T05:02:34;97633.91;;;14.34;100.00
65756;BME280;69208;47.502;18.940;2023-08-31T05:03:37;97637.75;;;14.37;100.00
65756;BME280;69208;47.502;18.940;2023-08-31T05:04:40;97632.91;;;14.39;100.00
65756;BME280;69208;47.502;18.940;2023-08-31T05:05:43;97636.00;;;14.41;100.00
65756;BME280;69208;47.502;18.940;2023-08-31T05:06:46;97642.59;;;14.47;100.00
65756;BME280;69208;47.502;18.940;2023-08-31T05:07:49;97638.97;;;14.39;100.00
65756;BME280;69208;47.502;18.940;2023-08-31T05:08:52;97640.16;;;14.42;100.00
65756;BME280;69208;47.502;18.940;2023-08-31T05:09:55;97647.06;;;14.46;100.00
65756;BME280;69208;47.502;18.940;2023-08-31T05:10:58;97643.81;;;14.49;100.00
65756;BME280;69208;47.502;18.940;2023-08-31T05:12:01;97646.87;;;14.51;100.00
65756;BME280;69208;47.502;18.940;2023-08-31T05:13:08;97649.22;;;14.53;100.00
65756;BME280;69208;47.502;18.940;2023-08-31T05:14:11;97658.34;;;14.55;100.00
65756;BME280;69208;47.502;18.940;2023-08-31T05:15:14;97656.78;;;14.54;100.00
65756;BME280;69208;47.502;18.940;2023-08-31T05:16:17;97660.31;;;14.59;100.00
65756;BME280;69208;47.502;18.940;2023-08-31T05:17:21;97657.22;;;14.56;100.00
65756;BME280;69208;47.502;18.940;2023-08-31T05:18:24;97662.16;;;14.58;100.00
65756;BME280;69208;47.502;18.940;2023-08-31T05:19:27;97669.53;;;14.65;100.00
65756;BME280;69208;47.502;18.940;2023-08-31T05:20:31;97658.63;;;14.66;100.00
65756;BME280;69208;47.502;18.940;2023-08-31T05:21:34;97670.75;;;14.67;100.00
65756;BME280;69208;47.502;18.940;2023-08-31T05:22:37;97664.69;;;14.67;100.00
65756;BME280;69208;47.502;18.940;2023-08-31T05:23:40;97665.47;;;14.67;100.00
65756;BME280;69208;47.502;18.940;2023-08-31T05:24:43;97667.75;;;14.69;100.00
65756;BME280;69208;47.502;18.940;2023-08-31T05:25:46;97673.69;;;14.66;98.70
65756;BME280;69208;47.502;18.940;2023-08-31T05:26:49;97671.41;;;14.64;97.94
65756;BME280;69208;47.502;18.940;2023-08-31T05:27:52;97673.03;;;14.69;99.14
65756;BME280;69208;47.502;18.940;2023-08-31T05:28:55;97672.81;;;14.74;100.00
65756;BME280;69208;47.502;18.940;2023-08-31T05:29:58;97666.53;;;14.78;99.90
65756;BME280;69208;47.502;18.940;2023-08-31T05:31:01;97673.91;;;14.73;100.00
65756;BME280;69208;47.502;18.940;2023-08-31T05:32:08;97672.59;;;14.79;100.00
65756;BME280;69208;47.502;18.940;2023-08-31T05:33:11;97677.53;;;14.81;100.00
65756;BME280;69208;47.502;18.940;2023-08-31T05:34:21;97672.34;;;14.84;99.84
65756;BME280;69208;47.502;18.940;2023-08-31T05:35:24;97682.59;;;14.86;99.92
65756;BME280;69208;47.502;18.940;2023-08-31T05:36:26;97672.91;;;14.90;99.99